sensor_id;sensor_type;location;lat;lon;timestamp;P1;durP1;ratioP1;P2;durP2;ratioP2
77026;SDS011;65956;52.986;17.490;2023-05-07T00:00:10;13.80;;;8.70;;
77026;SDS011;65956;52.986;17.490;2023-05-07T00:02:56;14.80;;;8.10;;
77026;SDS011;65956;52.986;17.490;2023-05-07T00:05:23;13.30;;;8.20;;
77026;SDS011;65956;52.986;17.490;2023-05-07T00:07:48;12.60;;;7.50;;
77026;SDS011;65956;52.986;17.490;2023-05-07T00:10:14;13.80;;;8.20;;
77026;SDS011;65956;52.986;17.490;2023-05-07T00:12:40;14.90;;;8.70;;
77026;SDS011;65956;52.986;17.490;2023-05-07T00:15:07;17.70;;;8.90;;
77026;SDS011;65956;52.986;17.490;2023-05-07T00:17:33;18.00;;;10.20;;
77026;SDS011;65956;52.986;17.490;2023-05-07T00:19:59;17.50;;;9.70;;
77026;SDS011;65956;52.986;17.490;2023-05-07T00:22:25;17.60;;;10.10;;
77026;SDS011;65956;52.986;17.490;2023-05-07T00:24:51;17.20;;;9.90;;
77026;SDS011;65956;52.986;17.490;2023-05-07T00:27:17;16.60;;;9.10;;
77026;SDS011;65956;52.986;17.490;2023-05-07T00:29:43;15.40;;;8.40;;
77026;SDS011;65956;52.986;17.490;2023-05-07T00:32:09;14.30;;;7.90;;
77026;SDS011;65956;52.986;17.490;2023-05-07T00:34:35;13.90;;;8.40;;
77026;SDS011;65956;52.986;17.490;2023-05-07T00:37:01;14.90;;;8.60;;
77026;SDS011;65956;52.986;17.490;2023-05-07T00:39:27;15.40;;;8.00;;
77026;SDS011;65956;52.986;17.490;2023-05-07T00:41:53;14.20;;;8.70;;
77026;SDS011;65956;52.986;17.490;2023-05-07T00:44:19;21.00;;;9.40;;
77026;SDS011;65956;52.986;17.490;2023-05-07T00:46:45;14.60;;;7.80;;
77026;SDS011;65956;52.986;17.490;2023-05-07T00:49:14;13.30;;;8.30;;
77026;SDS011;65956;52.986;17.490;2023-05-07T00:51:40;13.50;;;9.50;;
77026;SDS011;65956;52.986;17.490;2023-05-07T00:54:06;14.40;;;9.30;;
77026;SDS011;65956;52.986;17.490;2023-05-07T00:56:33;15.70;;;10.10;;
77026;SDS011;65956;52.986;17.490;2023-05-07T00:59:01;14.10;;;9.40;;
77026;SDS011;65956;52.986;17.490;2023-05-07T01:01:28;14.80;;;9.60;;
77026;SDS011;65956;52.986;17.490;2023-05-07T01:03:55;16.10;;;9.90;;
77026;SDS011;65956;52.986;17.490;2023-05-07T01:06:23;14.80;;;9.20;;
77026;SDS011;65956;52.986;17.490;2023-05-07T01:08:51;13.60;;;8.50;;
77026;SDS011;65956;52.986;17.490;2023-05-07T01:11:18;14.20;;;8.50;;
77026;SDS011;65956;52.986;17.490;2023-05-07T01:13:46;12.70;;;8.20;;
77026;SDS011;65956;52.986;17.490;2023-05-07T01:16:13;11.40;;;5.70;;
77026;SDS011;65956;52.986;17.490;2023-05-07T01:18:39;12.30;;;7.90;;
77026;SDS011;65956;52.986;17.490;2023-05-07T01:21:06;16.60;;;8.60;;
77026;SDS011;65956;52.986;17.490;2023-05-07T01:23:36;14.60;;;8.30;;
77026;SDS011;65956;52.986;17.490;2023-05-07T01:26:04;15.40;;;8.20;;
77026;SDS011;65956;52.986;17.490;2023-05-07T01:28:30;14.10;;;7.80;;
77026;SDS011;65956;52.986;17.490;2023-05-07T01:31:01;15.50;;;8.00;;
77026;SDS011;65956;52.986;17.490;2023-05-07T01:33:31;14.90;;;8.90;;
77026;SDS011;65956;52.986;17.490;2023-05-07T01:36:00;14.00;;;9.40;;
77026;SDS011;65956;52.986;17.490;2023-05-07T01:38:29;13.70;;;8.70;;
77026;SDS011;65956;52.986;17.490;2023-05-07T01:40:56;14.90;;;9.00;;
77026;SDS011;65956;52.986;17.490;2023-05-07T01:43:23;13.90;;;8.40;;
77026;SDS011;65956;52.986;17.490;2023-05-07T01:45:50;14.30;;;9.00;;
77026;SDS011;65956;52.986;17.490;2023-05-07T01:48:17;13.60;;;8.10;;
77026;SDS011;65956;52.986;17.490;2023-05-07T01:50:44;13.20;;;7.80;;
77026;SDS011;65956;52.986;17.490;2023-05-07T01:53:10;14.30;;;8.50;;
77026;SDS011;65956;52.986;17.490;2023-05-07T01:55:36;14.70;;;8.30;;
77026;SDS011;65956;52.986;17.490;2023-05-07T01:58:03;16.90;;;8.70;;
77026;SDS011;65956;52.986;17.490;2023-05-07T02:00:30;13.80;;;8.10;;
77026;SDS011;65956;52.986;17.490;2023-05-07T02:02:56;15.80;;;9.10;;
77026;SDS011;65956;52.986;17.490;2023-05-07T02:05:27;14.90;;;8.80;;
77026;SDS011;65956;52.986;17.490;2023-05-07T02:07:58;17.90;;;8.60;;
77026;SDS011;65956;52.986;17.490;2023-05-07T02:10:26;12.60;;;7.00;;
77026;SDS011;65956;52.986;17.490;2023-05-07T02:12:52;18.40;;;9.00;;
77026;SDS011;65956;52.986;17.490;2023-05-07T02:15:18;13.70;;;8.20;;
77026;SDS011;65956;52.986;17.490;2023-05-07T02:17:57;13.00;;;8.20;;
77026;SDS011;65956;52.986;17.490;2023-05-07T02:20:25;15.90;;;8.50;;
77026;SDS011;65956;52.986;17.490;2023-05-07T02:22:51;11.00;;;6.30;;
77026;SDS011;65956;52.986;17.490;2023-05-07T02:25:17;15.60;;;8.80;;
77026;SDS011;65956;52.986;17.490;2023-05-07T02:27:43;14.40;;;8.90;;
77026;SDS011;65956;52.986;17.490;2023-05-07T02:30:10;17.20;;;8.20;;
77026;SDS011;65956;52.986;17.490;2023-05-07T02:32:36;13.20;;;7.90;;
77026;SDS011;65956;52.986;17.490;2023-05-07T02:35:02;15.60;;;7.80;;
77026;SDS011;65956;52.986;17.490;2023-05-07T02:37:29;14.30;;;8.00;;
77026;SDS011;65956;52.986;17.490;2023-05-07T02:39:55;14.80;;;8.40;;
77026;SDS011;65956;52.986;17.490;2023-05-07T02:42:21;13.90;;;8.30;;
77026;SDS011;65956;52.986;17.490;2023-05-07T02:44:47;16.80;;;9.00;;
77026;SDS011;65956;52.986;17.490;2023-05-07T02:47:14;13.50;;;8.60;;
77026;SDS011;65956;52.986;17.490;2023-05-07T02:49:41;13.00;;;8.70;;
77026;SDS011;65956;52.986;17.490;2023-05-07T02:52:07;15.30;;;8.70;;
77026;SDS011;65956;52.986;17.490;2023-05-07T02:54:33;14.10;;;8.40;;
77026;SDS011;65956;52.986;17.490;2023-05-07T02:56:59;16.40;;;9.00;;
77026;SDS011;65956;52.986;17.490;2023-05-07T02:59:26;15.80;;;9.00;;
77026;SDS011;65956;52.986;17.490;2023-05-07T03:01:53;16.70;;;9.40;;
77026;SDS011;65956;52.986;17.490;2023-05-07T03:04:19;13.50;;;8.40;;
77026;SDS011;65956;52.986;17.490;2023-05-07T03:06:45;16.60;;;9.00;;
77026;SDS011;65956;52.986;17.490;2023-05-07T03:09:11;14.00;;;8.70;;
77026;SDS011;65956;52.986;17.490;2023-05-07T03:11:36;13.00;;;8.20;;
77026;SDS011;65956;52.986;17.490;2023-05-07T03:14:03;13.50;;;8.50;;
77026;SDS011;65956;52.986;17.490;2023-05-07T03:16:29;13.30;;;7.90;;
77026;SDS011;65956;52.986;17.490;2023-05-07T03:18:54;13.80;;;7.40;;
77026;SDS011;65956;52.986;17.490;2023-05-07T03:21:20;14.30;;;8.00;;
77026;SDS011;65956;52.986;17.490;2023-05-07T03:23:46;12.90;;;8.10;;
77026;SDS011;65956;52.986;17.490;2023-05-07T03:26:12;13.20;;;7.70;;
77026;SDS011;65956;52.986;17.490;2023-05-07T03:28:38;13.40;;;7.30;;
77026;SDS011;65956;52.986;17.490;2023-05-07T03:31:06;14.90;;;7.60;;
77026;SDS011;65956;52.986;17.490;2023-05-07T03:33:33;14.20;;;7.20;;
77026;SDS011;65956;52.986;17.490;2023-05-07T03:36:00;14.10;;;8.10;;
77026;SDS011;65956;52.986;17.490;2023-05-07T03:38:27;16.00;;;7.40;;
77026;SDS011;65956;52.986;17.490;2023-05-07T03:40:53;12.60;;;7.20;;
77026;SDS011;65956;52.986;17.490;2023-05-07T03:43:20;11.90;;;7.70;;
77026;SDS011;65956;52.986;17.490;2023-05-07T03:45:49;11.60;;;7.50;;
77026;SDS011;65956;52.986;17.490;2023-05-07T03:48:19;12.30;;;7.50;;
77026;SDS011;65956;52.986;17.490;2023-05-07T03:50:46;9.20;;;5.40;;
77026;SDS011;65956;52.986;17.490;2023-05-07T03:53:14;12.10;;;7.30;;
77026;SDS011;65956;52.986;17.490;2023-05-07T03:55:40;14.30;;;7.90;;
77026;SDS011;65956;52.986;17.490;2023-05-07T03:58:06;14.10;;;8.00;;
77026;SDS011;65956;52.986;17.490;2023-05-07T04:00:32;12.60;;;8.10;;
77026;SDS011;65956;52.986;17.490;2023-05-07T04:03:05;12.80;;;7.70;;
77026;SDS011;65956;52.986;17.490;2023-05-07T04:05:32;13.50;;;7.40;;
77026;SDS011;65956;52.986;17.490;2023-05-07T04:08:00;17.10;;;8.80;;
77026;SDS011;65956;52.986;17.490;2023-05-07T04:10:34;14.00;;;7.90;;
77026;SDS011;65956;52.986;17.490;2023-05-07T04:13:03;15.00;;;8.50;;
77026;SDS011;65956;52.986;17.490;2023-05-07T04:15:29;14.40;;;7.60;;
77026;SDS011;65956;52.986;17.490;2023-05-07T04:17:56;11.40;;;6.60;;
77026;SDS011;65956;52.986;17.490;2023-05-07T04:20:22;15.40;;;7.80;;
77026;SDS011;65956;52.986;17.490;2023-05-07T04:22:54;14.30;;;7.90;;
77026;SDS011;65956;52.986;17.490;2023-05-07T04:25:21;12.50;;;7.00;;
77026;SDS011;65956;52.986;17.490;2023-05-07T04:27:47;13.20;;;7.10;;
77026;SDS011;65956;52.986;17.490;2023-05-07T04:30:15;12.80;;;7.40;;
77026;SDS011;65956;52.986;17.490;2023-05-07T04:32:41;12.90;;;8.20;;
77026;SDS011;65956;52.986;17.490;2023-05-07T04:35:07;11.80;;;7.70;;
77026;SDS011;65956;52.986;17.490;2023-05-07T04:37:33;12.90;;;7.20;;
77026;SDS011;65956;52.986;17.490;2023-05-07T04:39:59;11.10;;;6.70;;
77026;SDS011;65956;52.986;17.490;2023-05-07T04:42:26;12.60;;;7.80;;
77026;SDS011;65956;52.986;17.490;2023-05-07T04:44:53;18.00;;;7.90;;
77026;SDS011;65956;52.986;17.490;2023-05-07T04:47:19;13.90;;;7.10;;
77026;SDS011;65956;52.986;17.490;2023-05-07T04:49:46;11.80;;;7.70;;
77026;SDS011;65956;52.986;17.490;2023-05-07T04:52:12;11.30;;;7.70;;
77026;SDS011;65956;52.986;17.490;2023-05-07T04:54:38;12.00;;;8.10;;
77026;SDS011;65956;52.986;17.490;2023-05-07T04:57:05;14.30;;;9.60;;
77026;SDS011;65956;52.986;17.490;2023-05-07T04:59:32;13.10;;;8.60;;
77026;SDS011;65956;52.986;17.490;2023-05-07T05:01:58;14.30;;;7.80;;
77026;SDS011;65956;52.986;17.490;2023-05-07T05:04:24;13.30;;;8.20;;
77026;SDS011;65956;52.986;17.490;2023-05-07T05:06:50;11.40;;;7.70;;
77026;SDS011;65956;52.986;17.490;2023-05-07T05:09:16;14.30;;;8.80;;
77026;SDS011;65956;52.986;17.490;2023-05-07T05:11:44;13.80;;;8.20;;
77026;SDS011;65956;52.986;17.490;2023-05-07T05:14:10;12.80;;;7.90;;
77026;SDS011;65956;52.986;17.490;2023-05-07T05:16:36;14.00;;;7.90;;
77026;SDS011;65956;52.986;17.490;2023-05-07T05:19:02;11.70;;;7.40;;
77026;SDS011;65956;52.986;17.490;2023-05-07T05:21:29;11.00;;;7.30;;
77026;SDS011;65956;52.986;17.490;2023-05-07T05:24:00;11.60;;;7.10;;
77026;SDS011;65956;52.986;17.490;2023-05-07T05:26:25;11.70;;;7.40;;
77026;SDS011;65956;52.986;17.490;2023-05-07T05:28:51;12.60;;;7.80;;
77026;SDS011;65956;52.986;17.490;2023-05-07T05:31:19;11.00;;;7.50;;
77026;SDS011;65956;52.986;17.490;2023-05-07T05:33:46;13.00;;;7.30;;
77026;SDS011;65956;52.986;17.490;2023-05-07T05:36:12;10.60;;;6.80;;
77026;SDS011;65956;52.986;17.490;2023-05-07T05:38:39;11.30;;;7.00;;
77026;SDS011;65956;52.986;17.490;2023-05-07T05:41:06;12.00;;;6.40;;
77026;SDS011;65956;52.986;17.490;2023-05-07T05:43:32;11.60;;;6.30;;
77026;SDS011;65956;52.986;17.490;2023-05-07T05:45:58;10.80;;;5.70;;
77026;SDS011;65956;52.986;17.490;2023-05-07T05:48:24;9.50;;;4.90;;
77026;SDS011;65956;52.986;17.490;2023-05-07T05:50:51;9.90;;;6.00;;
77026;SDS011;65956;52.986;17.490;2023-05-07T05:53:17;8.80;;;5.10;;
77026;SDS011;65956;52.986;17.490;2023-05-07T05:55:43;9.60;;;5.10;;
77026;SDS011;65956;52.986;17.490;2023-05-07T05:58:11;9.60;;;4.90;;
77026;SDS011;65956;52.986;17.490;2023-05-07T06:00:39;10.10;;;5.60;;
77026;SDS011;65956;52.986;17.490;2023-05-07T06:03:06;9.40;;;5.10;;
77026;SDS011;65956;52.986;17.490;2023-05-07T06:05:33;10.60;;;5.10;;
77026;SDS011;65956;52.986;17.490;2023-05-07T06:07:59;8.90;;;4.50;;
77026;SDS011;65956;52.986;17.490;2023-05-07T06:10:26;8.90;;;5.00;;
77026;SDS011;65956;52.986;17.490;2023-05-07T06:12:53;8.70;;;5.10;;
77026;SDS011;65956;52.986;17.490;2023-05-07T06:15:19;9.60;;;5.00;;
77026;SDS011;65956;52.986;17.490;2023-05-07T06:17:50;9.00;;;5.10;;
77026;SDS011;65956;52.986;17.490;2023-05-07T06:20:16;7.80;;;4.10;;
77026;SDS011;65956;52.986;17.490;2023-05-07T06:22:43;8.10;;;4.80;;
77026;SDS011;65956;52.986;17.490;2023-05-07T06:25:10;10.00;;;5.20;;
77026;SDS011;65956;52.986;17.490;2023-05-07T06:27:36;8.60;;;5.10;;
77026;SDS011;65956;52.986;17.490;2023-05-07T06:30:02;8.90;;;5.50;;
77026;SDS011;65956;52.986;17.490;2023-05-07T06:32:28;6.60;;;4.20;;
77026;SDS011;65956;52.986;17.490;2023-05-07T06:34:55;7.80;;;4.50;;
77026;SDS011;65956;52.986;17.490;2023-05-07T06:37:21;8.60;;;4.60;;
77026;SDS011;65956;52.986;17.490;2023-05-07T06:39:56;10.80;;;4.90;;
77026;SDS011;65956;52.986;17.490;2023-05-07T06:42:22;7.40;;;4.30;;
77026;SDS011;65956;52.986;17.490;2023-05-07T06:44:48;8.60;;;4.70;;
77026;SDS011;65956;52.986;17.490;2023-05-07T06:47:16;9.60;;;4.50;;
77026;SDS011;65956;52.986;17.490;2023-05-07T06:49:43;6.70;;;4.00;;
77026;SDS011;65956;52.986;17.490;2023-05-07T06:52:11;7.30;;;4.00;;
77026;SDS011;65956;52.986;17.490;2023-05-07T06:54:37;6.80;;;3.10;;
77026;SDS011;65956;52.986;17.490;2023-05-07T06:57:04;6.60;;;3.70;;
77026;SDS011;65956;52.986;17.490;2023-05-07T06:59:30;7.80;;;4.80;;
77026;SDS011;65956;52.986;17.490;2023-05-07T07:01:56;7.00;;;4.20;;
77026;SDS011;65956;52.986;17.490;2023-05-07T07:04:22;6.30;;;3.80;;
77026;SDS011;65956;52.986;17.490;2023-05-07T07:06:53;6.10;;;3.50;;
77026;SDS011;65956;52.986;17.490;2023-05-07T07:09:20;8.20;;;4.10;;
77026;SDS011;65956;52.986;17.490;2023-05-07T07:11:46;8.00;;;4.10;;
77026;SDS011;65956;52.986;17.490;2023-05-07T07:14:12;6.80;;;3.60;;
77026;SDS011;65956;52.986;17.490;2023-05-07T07:16:44;5.90;;;3.20;;
77026;SDS011;65956;52.986;17.490;2023-05-07T07:19:10;5.40;;;3.60;;
77026;SDS011;65956;52.986;17.490;2023-05-07T07:21:36;6.00;;;3.30;;
77026;SDS011;65956;52.986;17.490;2023-05-07T07:24:02;6.80;;;3.50;;
77026;SDS011;65956;52.986;17.490;2023-05-07T07:26:28;7.40;;;3.70;;
77026;SDS011;65956;52.986;17.490;2023-05-07T07:28:54;5.80;;;3.50;;
77026;SDS011;65956;52.986;17.490;2023-05-07T07:31:20;7.40;;;4.00;;
77026;SDS011;65956;52.986;17.490;2023-05-07T07:33:47;7.00;;;3.80;;
77026;SDS011;65956;52.986;17.490;2023-05-07T07:36:13;6.80;;;4.00;;
77026;SDS011;65956;52.986;17.490;2023-05-07T07:38:39;6.80;;;3.60;;
77026;SDS011;65956;52.986;17.490;2023-05-07T07:41:07;6.70;;;4.00;;
77026;SDS011;65956;52.986;17.490;2023-05-07T07:43:34;6.00;;;3.40;;
77026;SDS011;65956;52.986;17.490;2023-05-07T07:46:02;7.30;;;3.80;;
77026;SDS011;65956;52.986;17.490;2023-05-07T07:48:28;7.00;;;3.80;;
77026;SDS011;65956;52.986;17.490;2023-05-07T07:50:54;7.70;;;4.00;;
77026;SDS011;65956;52.986;17.490;2023-05-07T07:53:21;5.70;;;3.00;;
77026;SDS011;65956;52.986;17.490;2023-05-07T07:55:48;7.30;;;3.60;;
77026;SDS011;65956;52.986;17.490;2023-05-07T07:58:16;6.20;;;3.70;;
77026;SDS011;65956;52.986;17.490;2023-05-07T08:00:42;8.50;;;3.60;;
77026;SDS011;65956;52.986;17.490;2023-05-07T08:03:09;7.30;;;3.50;;
77026;SDS011;65956;52.986;17.490;2023-05-07T08:05:37;7.70;;;3.90;;
77026;SDS011;65956;52.986;17.490;2023-05-07T08:08:04;7.10;;;4.00;;
77026;SDS011;65956;52.986;17.490;2023-05-07T08:10:32;8.50;;;3.80;;
77026;SDS011;65956;52.986;17.490;2023-05-07T08:15:30;7.40;;;3.90;;
77026;SDS011;65956;52.986;17.490;2023-05-07T08:17:57;7.10;;;3.70;;
77026;SDS011;65956;52.986;17.490;2023-05-07T08:20:26;6.40;;;3.80;;
77026;SDS011;65956;52.986;17.490;2023-05-07T08:22:52;6.20;;;3.50;;
77026;SDS011;65956;52.986;17.490;2023-05-07T08:25:18;6.50;;;3.80;;
77026;SDS011;65956;52.986;17.490;2023-05-07T08:27:44;8.40;;;4.00;;
77026;SDS011;65956;52.986;17.490;2023-05-07T08:30:11;7.20;;;3.60;;
77026;SDS011;65956;52.986;17.490;2023-05-07T08:32:38;6.70;;;3.80;;
77026;SDS011;65956;52.986;17.490;2023-05-07T08:35:04;7.20;;;3.70;;
77026;SDS011;65956;52.986;17.490;2023-05-07T08:37:30;7.30;;;3.90;;
77026;SDS011;65956;52.986;17.490;2023-05-07T08:39:57;7.10;;;3.80;;
77026;SDS011;65956;52.986;17.490;2023-05-07T08:42:25;7.50;;;3.20;;
77026;SDS011;65956;52.986;17.490;2023-05-07T08:44:54;6.10;;;3.40;;
77026;SDS011;65956;52.986;17.490;2023-05-07T08:47:26;6.40;;;3.60;;
77026;SDS011;65956;52.986;17.490;2023-05-07T08:49:59;5.90;;;3.20;;
77026;SDS011;65956;52.986;17.490;2023-05-07T08:52:27;6.30;;;3.60;;
77026;SDS011;65956;52.986;17.490;2023-05-07T08:54:53;6.40;;;3.70;;
77026;SDS011;65956;52.986;17.490;2023-05-07T08:57:19;7.20;;;4.00;;
77026;SDS011;65956;52.986;17.490;2023-05-07T08:59:47;6.40;;;3.90;;
77026;SDS011;65956;52.986;17.490;2023-05-07T09:02:14;6.40;;;3.90;;
77026;SDS011;65956;52.986;17.490;2023-05-07T09:04:40;6.50;;;3.80;;
77026;SDS011;65956;52.986;17.490;2023-05-07T09:07:07;7.20;;;4.10;;
77026;SDS011;65956;52.986;17.490;2023-05-07T09:09:36;7.70;;;3.80;;
77026;SDS011;65956;52.986;17.490;2023-05-07T09:12:03;7.20;;;3.60;;
77026;SDS011;65956;52.986;17.490;2023-05-07T09:14:31;7.20;;;4.00;;
77026;SDS011;65956;52.986;17.490;2023-05-07T09:16:58;7.30;;;3.70;;
77026;SDS011;65956;52.986;17.490;2023-05-07T09:19:24;6.40;;;3.70;;
77026;SDS011;65956;52.986;17.490;2023-05-07T09:22:01;5.80;;;3.60;;
77026;SDS011;65956;52.986;17.490;2023-05-07T09:24:30;6.40;;;3.80;;
77026;SDS011;65956;52.986;17.490;2023-05-07T09:27:01;6.30;;;3.80;;
77026;SDS011;65956;52.986;17.490;2023-05-07T09:29:28;7.10;;;3.70;;
77026;SDS011;65956;52.986;17.490;2023-05-07T09:31:56;6.60;;;3.50;;
77026;SDS011;65956;52.986;17.490;2023-05-07T09:34:22;6.70;;;3.30;;
77026;SDS011;65956;52.986;17.490;2023-05-07T09:36:48;6.10;;;3.20;;
77026;SDS011;65956;52.986;17.490;2023-05-07T09:39:15;5.70;;;3.30;;
77026;SDS011;65956;52.986;17.490;2023-05-07T09:41:45;6.60;;;3.30;;
77026;SDS011;65956;52.986;17.490;2023-05-07T09:44:18;7.70;;;3.10;;
77026;SDS011;65956;52.986;17.490;2023-05-07T09:46:48;4.90;;;3.20;;
77026;SDS011;65956;52.986;17.490;2023-05-07T09:49:23;5.60;;;3.20;;
77026;SDS011;65956;52.986;17.490;2023-05-07T09:51:56;5.70;;;3.00;;
77026;SDS011;65956;52.986;17.490;2023-05-07T09:54:26;5.60;;;3.00;;
77026;SDS011;65956;52.986;17.490;2023-05-07T09:56:55;6.00;;;3.60;;
77026;SDS011;65956;52.986;17.490;2023-05-07T09:59:23;5.00;;;2.70;;
77026;SDS011;65956;52.986;17.490;2023-05-07T10:01:51;7.10;;;2.90;;
77026;SDS011;65956;52.986;17.490;2023-05-07T10:04:19;5.20;;;3.00;;
77026;SDS011;65956;52.986;17.490;2023-05-07T10:06:47;7.00;;;3.10;;
77026;SDS011;65956;52.986;17.490;2023-05-07T10:09:13;5.90;;;3.60;;
77026;SDS011;65956;52.986;17.490;2023-05-07T10:11:41;5.80;;;3.00;;
77026;SDS011;65956;52.986;17.490;2023-05-07T10:14:07;5.40;;;2.90;;
77026;SDS011;65956;52.986;17.490;2023-05-07T10:16:34;5.10;;;3.00;;
77026;SDS011;65956;52.986;17.490;2023-05-07T10:19:03;5.60;;;3.00;;
77026;SDS011;65956;52.986;17.490;2023-05-07T10:21:33;5.00;;;2.70;;
77026;SDS011;65956;52.986;17.490;2023-05-07T10:24:08;5.50;;;2.90;;
77026;SDS011;65956;52.986;17.490;2023-05-07T10:34:43;5.20;;;2.90;;
77026;SDS011;65956;52.986;17.490;2023-05-07T10:37:12;5.20;;;2.60;;
77026;SDS011;65956;52.986;17.490;2023-05-07T10:39:39;5.70;;;2.60;;
77026;SDS011;65956;52.986;17.490;2023-05-07T10:42:12;4.20;;;2.60;;
77026;SDS011;65956;52.986;17.490;2023-05-07T10:44:43;4.60;;;2.60;;
77026;SDS011;65956;52.986;17.490;2023-05-07T10:47:14;5.20;;;2.80;;
77026;SDS011;65956;52.986;17.490;2023-05-07T10:52:18;5.80;;;2.90;;
77026;SDS011;65956;52.986;17.490;2023-05-07T11:00:56;5.40;;;2.80;;
77026;SDS011;65956;52.986;17.490;2023-05-07T11:03:27;4.70;;;2.80;;
77026;SDS011;65956;52.986;17.490;2023-05-07T11:06:11;5.60;;;3.00;;
77026;SDS011;65956;52.986;17.490;2023-05-07T11:08:58;4.20;;;2.30;;
77026;SDS011;65956;52.986;17.490;2023-05-07T11:17:27;4.50;;;2.50;;
77026;SDS011;65956;52.986;17.490;2023-05-07T11:20:01;4.90;;;2.50;;
77026;SDS011;65956;52.986;17.490;2023-05-07T11:22:36;4.70;;;2.70;;
77026;SDS011;65956;52.986;17.490;2023-05-07T11:25:17;5.20;;;2.30;;
77026;SDS011;65956;52.986;17.490;2023-05-07T11:27:51;4.80;;;2.70;;
77026;SDS011;65956;52.986;17.490;2023-05-07T11:30:18;4.80;;;2.90;;
77026;SDS011;65956;52.986;17.490;2023-05-07T11:32:46;5.30;;;2.80;;
77026;SDS011;65956;52.986;17.490;2023-05-07T11:35:15;5.00;;;2.90;;
77026;SDS011;65956;52.986;17.490;2023-05-07T11:37:42;5.20;;;2.50;;
77026;SDS011;65956;52.986;17.490;2023-05-07T11:40:12;6.40;;;2.70;;
77026;SDS011;65956;52.986;17.490;2023-05-07T11:42:39;7.00;;;2.80;;
77026;SDS011;65956;52.986;17.490;2023-05-07T11:45:09;4.50;;;2.70;;
77026;SDS011;65956;52.986;17.490;2023-05-07T11:47:35;5.20;;;3.10;;
77026;SDS011;65956;52.986;17.490;2023-05-07T11:50:05;5.00;;;3.00;;
77026;SDS011;65956;52.986;17.490;2023-05-07T11:52:33;8.10;;;3.30;;
77026;SDS011;65956;52.986;17.490;2023-05-07T11:55:00;5.60;;;3.20;;
77026;SDS011;65956;52.986;17.490;2023-05-07T11:57:27;4.50;;;2.80;;
77026;SDS011;65956;52.986;17.490;2023-05-07T11:59:54;5.10;;;2.70;;
77026;SDS011;65956;52.986;17.490;2023-05-07T12:02:21;5.30;;;2.90;;
77026;SDS011;65956;52.986;17.490;2023-05-07T12:04:48;4.50;;;2.60;;
77026;SDS011;65956;52.986;17.490;2023-05-07T12:07:14;5.50;;;3.10;;
77026;SDS011;65956;52.986;17.490;2023-05-07T12:09:41;5.50;;;2.90;;
77026;SDS011;65956;52.986;17.490;2023-05-07T12:12:07;6.60;;;3.40;;
77026;SDS011;65956;52.986;17.490;2023-05-07T12:14:43;4.70;;;2.40;;
77026;SDS011;65956;52.986;17.490;2023-05-07T12:19:37;4.60;;;2.60;;
77026;SDS011;65956;52.986;17.490;2023-05-07T12:22:05;5.50;;;3.70;;
77026;SDS011;65956;52.986;17.490;2023-05-07T12:27:25;4.10;;;2.30;;
77026;SDS011;65956;52.986;17.490;2023-05-07T12:29:51;4.50;;;3.10;;
77026;SDS011;65956;52.986;17.490;2023-05-07T12:32:18;4.40;;;2.60;;
77026;SDS011;65956;52.986;17.490;2023-05-07T12:34:49;3.80;;;2.20;;
77026;SDS011;65956;52.986;17.490;2023-05-07T12:37:22;4.30;;;2.40;;
77026;SDS011;65956;52.986;17.490;2023-05-07T12:40:04;7.50;;;4.50;;
77026;SDS011;65956;52.986;17.490;2023-05-07T12:42:35;6.70;;;4.50;;
77026;SDS011;65956;52.986;17.490;2023-05-07T12:45:12;6.20;;;4.70;;
77026;SDS011;65956;52.986;17.490;2023-05-07T12:47:50;7.90;;;5.30;;
77026;SDS011;65956;52.986;17.490;2023-05-07T12:50:16;6.90;;;5.00;;
77026;SDS011;65956;52.986;17.490;2023-05-07T12:52:45;7.20;;;5.40;;
77026;SDS011;65956;52.986;17.490;2023-05-07T12:55:13;10.60;;;8.80;;
77026;SDS011;65956;52.986;17.490;2023-05-07T12:57:42;10.00;;;8.30;;
77026;SDS011;65956;52.986;17.490;2023-05-07T13:00:09;9.10;;;7.90;;
77026;SDS011;65956;52.986;17.490;2023-05-07T13:02:39;8.70;;;6.30;;
77026;SDS011;65956;52.986;17.490;2023-05-07T13:05:07;6.70;;;5.50;;
77026;SDS011;65956;52.986;17.490;2023-05-07T13:07:34;6.00;;;4.60;;
77026;SDS011;65956;52.986;17.490;2023-05-07T13:10:00;4.80;;;2.80;;
77026;SDS011;65956;52.986;17.490;2023-05-07T13:12:26;4.60;;;2.70;;
77026;SDS011;65956;52.986;17.490;2023-05-07T13:14:52;6.10;;;4.10;;
77026;SDS011;65956;52.986;17.490;2023-05-07T13:17:18;4.90;;;3.00;;
77026;SDS011;65956;52.986;17.490;2023-05-07T13:19:44;3.70;;;2.30;;
77026;SDS011;65956;52.986;17.490;2023-05-07T13:22:10;4.60;;;2.50;;
77026;SDS011;65956;52.986;17.490;2023-05-07T13:24:37;3.70;;;2.30;;
77026;SDS011;65956;52.986;17.490;2023-05-07T13:27:04;4.20;;;2.10;;
77026;SDS011;65956;52.986;17.490;2023-05-07T13:29:30;3.80;;;2.10;;
77026;SDS011;65956;52.986;17.490;2023-05-07T13:31:58;4.80;;;2.30;;
77026;SDS011;65956;52.986;17.490;2023-05-07T13:34:25;4.60;;;2.10;;
77026;SDS011;65956;52.986;17.490;2023-05-07T13:36:51;3.80;;;2.10;;
77026;SDS011;65956;52.986;17.490;2023-05-07T13:39:17;3.80;;;2.00;;
77026;SDS011;65956;52.986;17.490;2023-05-07T13:41:43;4.20;;;2.00;;
77026;SDS011;65956;52.986;17.490;2023-05-07T13:44:09;4.40;;;3.30;;
77026;SDS011;65956;52.986;17.490;2023-05-07T13:46:35;4.30;;;2.90;;
77026;SDS011;65956;52.986;17.490;2023-05-07T13:49:01;4.00;;;2.40;;
77026;SDS011;65956;52.986;17.490;2023-05-07T13:51:27;3.50;;;2.10;;
77026;SDS011;65956;52.986;17.490;2023-05-07T13:53:53;3.60;;;2.10;;
77026;SDS011;65956;52.986;17.490;2023-05-07T13:56:19;4.90;;;2.10;;
77026;SDS011;65956;52.986;17.490;2023-05-07T13:58:46;3.90;;;1.80;;
77026;SDS011;65956;52.986;17.490;2023-05-07T14:01:12;3.50;;;1.90;;
77026;SDS011;65956;52.986;17.490;2023-05-07T14:03:38;4.30;;;2.20;;
77026;SDS011;65956;52.986;17.490;2023-05-07T14:06:05;3.90;;;2.00;;
77026;SDS011;65956;52.986;17.490;2023-05-07T14:08:31;3.80;;;2.10;;
77026;SDS011;65956;52.986;17.490;2023-05-07T14:10:57;4.60;;;2.10;;
77026;SDS011;65956;52.986;17.490;2023-05-07T14:13:23;4.20;;;2.30;;
77026;SDS011;65956;52.986;17.490;2023-05-07T14:15:49;3.20;;;2.10;;
77026;SDS011;65956;52.986;17.490;2023-05-07T14:18:15;3.90;;;2.10;;
77026;SDS011;65956;52.986;17.490;2023-05-07T14:20:41;4.20;;;2.20;;
77026;SDS011;65956;52.986;17.490;2023-05-07T14:23:12;4.40;;;2.00;;
77026;SDS011;65956;52.986;17.490;2023-05-07T14:25:38;5.80;;;2.60;;
77026;SDS011;65956;52.986;17.490;2023-05-07T14:28:04;4.00;;;2.00;;
77026;SDS011;65956;52.986;17.490;2023-05-07T14:30:30;4.20;;;1.80;;
77026;SDS011;65956;52.986;17.490;2023-05-07T14:32:56;4.20;;;2.10;;
77026;SDS011;65956;52.986;17.490;2023-05-07T14:35:22;4.20;;;2.20;;
77026;SDS011;65956;52.986;17.490;2023-05-07T14:37:48;4.90;;;2.10;;
77026;SDS011;65956;52.986;17.490;2023-05-07T14:40:14;3.60;;;1.90;;
77026;SDS011;65956;52.986;17.490;2023-05-07T14:42:40;4.90;;;1.70;;
77026;SDS011;65956;52.986;17.490;2023-05-07T14:45:06;4.90;;;2.30;;
77026;SDS011;65956;52.986;17.490;2023-05-07T14:47:33;3.90;;;2.10;;
77026;SDS011;65956;52.986;17.490;2023-05-07T14:49:59;3.70;;;2.10;;
77026;SDS011;65956;52.986;17.490;2023-05-07T14:52:26;3.70;;;2.00;;
77026;SDS011;65956;52.986;17.490;2023-05-07T14:54:52;3.40;;;1.90;;
77026;SDS011;65956;52.986;17.490;2023-05-07T14:57:18;3.90;;;1.90;;
77026;SDS011;65956;52.986;17.490;2023-05-07T14:59:45;3.40;;;1.90;;